createdAt,value
2022-08-17T00:01:30.385Z,100.00
2022-08-17T00:04:11.722Z,100.00
2022-08-17T00:06:38.920Z,100.00
2022-08-17T00:09:06.096Z,100.00
2022-08-17T00:11:37.688Z,100.00
2022-08-17T00:14:07.925Z,100.00
2022-08-17T00:16:57.093Z,100.00
2022-08-17T00:19:26.383Z,100.00
2022-08-17T00:22:32.410Z,100.00
2022-08-17T00:24:43.857Z,100.00
2022-08-17T00:27:12.491Z,100.00
2022-08-17T00:29:39.682Z,100.00
2022-08-17T00:33:15.603Z,100.00
2022-08-17T00:34:54.364Z,100.00
2022-08-17T00:37:21.616Z,100.00
2022-08-17T00:39:48.715Z,100.00
2022-08-17T00:42:19.546Z,100.00
2022-08-17T00:44:46.662Z,100.00
2022-08-17T00:47:14.410Z,100.00
2022-08-17T00:49:42.005Z,100.00
2022-08-17T00:52:16.466Z,100.00
2022-08-17T00:54:47.059Z,100.00
2022-08-17T00:57:18.733Z,100.00
2022-08-17T01:00:02.343Z,100.00
2022-08-17T01:02:42.236Z,100.00
2022-08-17T01:05:25.413Z,100.00
2022-08-17T01:07:53.929Z,100.00
2022-08-17T01:11:00.003Z,100.00
2022-08-17T01:13:17.355Z,100.00
2022-08-17T01:15:51.341Z,100.00
2022-08-17T01:18:18.679Z,100.00
2022-08-17T01:20:49.659Z,100.00
2022-08-17T01:23:21.253Z,100.00
2022-08-17T01:25:51.471Z,100.00
2022-08-17T01:28:33.607Z,100.00
2022-08-17T01:31:08.087Z,100.00
2022-08-17T01:33:36.151Z,100.00
2022-08-17T01:36:06.907Z,100.00
2022-08-17T01:38:37.297Z,100.00
2022-08-17T01:41:08.981Z,100.00
2022-08-17T01:43:43.530Z,100.00
2022-08-17T01:46:15.795Z,100.00
2022-08-17T01:48:42.892Z,100.00
2022-08-17T01:51:10.101Z,100.00
2022-08-17T01:53:44.616Z,100.00
2022-08-17T01:56:14.725Z,100.00
2022-08-17T01:58:42.661Z,100.00
2022-08-17T02:01:10.976Z,100.00
2022-08-17T02:03:39.031Z,100.00
2022-08-17T02:06:27.159Z,100.00
2022-08-17T02:09:02.487Z,100.00
2022-08-17T02:11:32.385Z,100.00
2022-08-17T02:14:02.946Z,100.00
2022-08-17T02:16:36.797Z,100.00
2022-08-17T02:19:08.893Z,100.00
2022-08-17T02:21:37.129Z,100.00
2022-08-17T02:24:08.671Z,100.00
2022-08-17T02:26:35.931Z,100.00
2022-08-17T02:29:03.093Z,100.00
2022-08-17T02:31:30.245Z,100.00
2022-08-17T02:34:04.118Z,100.00
2022-08-17T02:36:33.493Z,100.00
2022-08-17T02:39:01.404Z,100.00
2022-08-17T02:41:29.792Z,100.00
2022-08-17T02:43:56.985Z,100.00
2022-08-17T02:46:24.041Z,100.00
2022-08-17T02:48:51.293Z,100.00
2022-08-17T02:51:18.484Z,100.00
2022-08-17T02:53:45.586Z,100.00
2022-08-17T02:56:12.901Z,100.00
2022-08-17T02:58:41.769Z,100.00
2022-08-17T03:01:10.413Z,100.00
2022-08-17T03:03:38.380Z,100.00
2022-08-17T03:06:07.528Z,100.00
2022-08-17T03:08:35.137Z,100.00
2022-08-17T03:11:02.314Z,100.00
2022-08-17T03:13:29.334Z,100.00
2022-08-17T03:15:58.072Z,100.00
2022-08-17T03:18:26.218Z,100.00
2022-08-17T03:20:54.665Z,100.00
2022-08-17T03:23:24.143Z,100.00
2022-08-17T03:25:54.093Z,100.00
2022-08-17T03:28:21.910Z,100.00
2022-08-17T03:30:50.719Z,100.00
2022-08-17T03:33:19.627Z,100.00
2022-08-17T03:35:47.133Z,100.00
2022-08-17T03:38:15.081Z,100.00
2022-08-17T03:40:56.909Z,100.00
2022-08-17T03:43:26.809Z,100.00
2022-08-17T03:45:54.000Z,100.00
2022-08-17T03:48:22.707Z,100.00
2022-08-17T03:50:50.080Z,100.00
2022-08-17T03:53:17.955Z,100.00
2022-08-17T03:55:45.040Z,100.00
2022-08-17T03:58:12.140Z,100.00
2022-08-17T04:00:39.844Z,100.00
2022-08-17T04:03:07.127Z,100.00
2022-08-17T04:05:37.949Z,100.00
2022-08-17T04:08:06.168Z,100.00
2022-08-17T04:10:34.535Z,100.00
2022-08-17T04:13:12.189Z,100.00
2022-08-17T04:15:39.717Z,100.00
2022-08-17T04:18:07.617Z,100.00
2022-08-17T04:20:39.516Z,100.00
2022-08-17T04:23:10.213Z,100.00
2022-08-17T04:25:44.569Z,100.00
2022-08-17T04:28:16.146Z,100.00
2022-08-17T04:30:45.308Z,100.00
2022-08-17T04:33:19.723Z,100.00
2022-08-17T04:35:50.832Z,100.00
2022-08-17T04:38:20.689Z,100.00
2022-08-17T04:40:48.515Z,100.00
2022-08-17T04:43:18.859Z,100.00
2022-08-17T04:45:55.342Z,100.00
2022-08-17T04:48:29.647Z,100.00
2022-08-17T04:51:09.837Z,100.00
2022-08-17T04:53:38.453Z,100.00
2022-08-17T04:56:06.819Z,100.00
2022-08-17T04:58:34.488Z,100.00
2022-08-17T05:01:01.779Z,100.00
2022-08-17T05:03:29.362Z,100.00
2022-08-17T05:05:56.780Z,100.00
2022-08-17T05:08:25.470Z,100.00
2022-08-17T05:10:53.097Z,100.00
2022-08-17T05:13:22.343Z,100.00
2022-08-17T05:15:53.551Z,100.00
2022-08-17T05:18:21.416Z,100.00
2022-08-17T05:20:52.670Z,100.00
2022-08-17T05:23:22.782Z,100.00
2022-08-17T05:25:54.109Z,100.00
2022-08-17T05:28:24.187Z,100.00
2022-08-17T05:30:56.076Z,100.00
2022-08-17T05:33:26.008Z,100.00
2022-08-17T05:35:55.806Z,100.00
2022-08-17T05:38:25.420Z,100.00
2022-08-17T05:40:55.059Z,100.00
2022-08-17T05:43:24.046Z,100.00
2022-08-17T05:45:58.079Z,100.00
2022-08-17T05:48:36.741Z,100.00
2022-08-17T05:51:32.709Z,100.00
2022-08-17T05:54:15.910Z,100.00
2022-08-17T05:57:09.156Z,100.00
2022-08-17T05:59:46.980Z,100.00
2022-08-17T06:02:23.190Z,100.00
2022-08-17T06:05:10.886Z,100.00
2022-08-17T06:07:48.366Z,100.00
2022-08-17T06:10:24.534Z,100.00
2022-08-17T06:13:05.684Z,100.00
2022-08-17T06:15:44.015Z,100.00
2022-08-17T06:18:14.816Z,100.00
2022-08-17T06:20:50.968Z,100.00
2022-08-17T06:23:26.967Z,100.00
2022-08-17T06:25:59.406Z,100.00
2022-08-17T06:28:34.505Z,100.00
2022-08-17T06:31:09.930Z,100.00
2022-08-17T06:33:38.108Z,100.00
2022-08-17T06:36:17.400Z,100.00
2022-08-17T06:38:55.237Z,100.00
2022-08-17T06:41:29.120Z,100.00
2022-08-17T06:44:09.147Z,100.00
2022-08-17T06:46:39.280Z,100.00
2022-08-17T06:49:19.091Z,100.00
2022-08-17T06:51:52.134Z,100.00
2022-08-17T06:54:26.064Z,100.00
2022-08-17T06:56:59.230Z,100.00
2022-08-17T06:59:36.271Z,100.00
2022-08-17T07:02:29.043Z,100.00
2022-08-17T07:05:17.492Z,100.00
2022-08-17T07:07:59.810Z,100.00
2022-08-17T07:10:29.661Z,100.00
2022-08-17T07:13:03.537Z,100.00
2022-08-17T07:15:41.288Z,100.00
2022-08-17T07:18:09.494Z,100.00
2022-08-17T07:20:42.218Z,100.00
2022-08-17T07:23:20.602Z,100.00
2022-08-17T07:25:49.536Z,100.00
2022-08-17T07:28:21.614Z,100.00
2022-08-17T07:30:54.039Z,100.00
2022-08-17T07:33:24.499Z,100.00
2022-08-17T07:35:53.497Z,100.00
2022-08-17T07:38:25.859Z,100.00
2022-08-17T07:41:02.762Z,100.00
2022-08-17T07:43:32.642Z,100.00
2022-08-17T07:46:11.605Z,100.00
2022-08-17T07:48:41.142Z,100.00
2022-08-17T07:51:17.677Z,100.00
2022-08-17T07:53:45.561Z,100.00
2022-08-17T07:56:32.517Z,100.00
2022-08-17T07:59:12.203Z,98.04
2022-08-17T08:01:47.239Z,99.52
2022-08-17T08:07:26.705Z,96.91
2022-08-17T08:10:03.755Z,97.83
2022-08-17T08:12:34.234Z,96.50
2022-08-17T08:15:11.539Z,95.44
2022-08-17T08:17:52.186Z,97.47
2022-08-17T08:20:51.485Z,97.87
2022-08-17T08:23:20.625Z,96.00
2022-08-17T08:25:59.919Z,93.40
2022-08-17T08:28:33.467Z,91.50
2022-08-17T08:31:09.123Z,92.23
2022-08-17T08:33:48.199Z,89.50
2022-08-17T08:37:12.690Z,87.69
2022-08-17T08:39:20.900Z,84.01
2022-08-17T08:41:58.510Z,87.80
2022-08-17T08:45:00.923Z,84.72
2022-08-17T08:47:49.310Z,83.24
2022-08-17T08:50:37.017Z,84.32
2022-08-17T08:53:18.546Z,80.24
2022-08-17T08:55:52.331Z,83.36
2022-08-17T08:58:31.732Z,80.40
2022-08-17T09:01:17.556Z,74.32
2022-08-17T09:04:24.638Z,74.95
2022-08-17T09:07:03.152Z,74.26
2022-08-17T09:09:42.721Z,74.13
2022-08-17T09:12:15.886Z,72.16
2022-08-17T09:14:54.735Z,71.12
2022-08-17T09:17:35.814Z,70.03
2022-08-17T09:20:11.400Z,69.68
2022-08-17T09:23:00.999Z,70.53
2022-08-17T09:25:36.832Z,72.11
2022-08-17T09:28:07.229Z,66.24
2022-08-17T09:30:44.017Z,65.69
2022-08-17T09:33:15.629Z,63.94
2022-08-17T09:35:47.363Z,64.21
2022-08-17T09:38:25.606Z,65.80
2022-08-17T09:41:02.701Z,62.30
2022-08-17T09:43:39.083Z,62.56
2022-08-17T09:46:12.013Z,62.44
2022-08-17T09:48:44.392Z,63.40
2022-08-17T09:51:18.509Z,65.22
2022-08-17T09:53:47.330Z,63.98
2022-08-17T09:56:35.137Z,63.07
2022-08-17T09:59:22.277Z,62.37
2022-08-17T10:01:59.864Z,66.40
2022-08-17T10:04:39.369Z,64.89
2022-08-17T10:07:14.726Z,62.99
2022-08-17T10:09:57.304Z,61.92
2022-08-17T10:12:33.627Z,63.50
2022-08-17T10:15:15.371Z,64.11
2022-08-17T10:18:03.927Z,62.06
2022-08-17T10:20:36.981Z,59.63
2022-08-17T10:23:09.925Z,58.29
2022-08-17T10:25:55.246Z,58.72
2022-08-17T10:28:29.718Z,57.63
2022-08-17T10:31:33.187Z,58.23
2022-08-17T10:34:05.423Z,52.93
2022-08-17T10:36:41.718Z,52.64
2022-08-17T10:39:23.159Z,52.67
2022-08-17T10:41:58.243Z,52.86
2022-08-17T10:44:38.381Z,51.35
2022-08-17T10:47:09.805Z,49.71
2022-08-17T10:49:38.642Z,48.94
2022-08-17T10:52:44.275Z,48.96
2022-08-17T10:55:16.033Z,48.80
2022-08-17T10:57:47.829Z,47.01
2022-08-17T11:00:58.351Z,48.08
2022-08-17T11:03:26.869Z,49.94
2022-08-17T11:06:07.227Z,47.06
2022-08-17T11:09:10.253Z,47.83
2022-08-17T11:12:14.434Z,49.78
2022-08-17T11:14:59.706Z,47.34
2022-08-17T11:17:59.430Z,47.39
2022-08-17T11:20:57.145Z,47.95
2022-08-17T11:23:47.079Z,45.39
2022-08-17T11:26:23.773Z,48.57
2022-08-17T11:28:53.031Z,47.41
2022-08-17T11:31:38.593Z,47.03
2022-08-17T11:34:17.245Z,45.89
2022-08-17T11:37:16.496Z,46.49
2022-08-17T11:40:10.366Z,47.30
2022-08-17T11:42:52.084Z,44.79
2022-08-17T11:45:41.931Z,44.83
2022-08-17T11:48:28.991Z,45.60
2022-08-17T11:51:05.654Z,46.32
2022-08-17T11:54:31.887Z,47.05
2022-08-17T11:56:57.422Z,42.70
2022-08-17T12:00:00.933Z,42.05
2022-08-17T12:02:47.926Z,44.55
2022-08-17T12:05:36.936Z,43.56
2022-08-17T12:08:14.417Z,42.54
2022-08-17T12:11:03.914Z,41.94
2022-08-17T12:13:39.727Z,43.35
2022-08-17T12:16:08.643Z,42.72
2022-08-17T12:18:38.117Z,41.64
2022-08-17T12:21:28.182Z,40.44
2022-08-17T12:24:01.824Z,41.35
2022-08-17T12:26:31.846Z,42.00
2022-08-17T12:29:02.257Z,41.58
2022-08-17T12:31:34.249Z,40.66
2022-08-17T12:34:03.086Z,39.77
2022-08-17T12:36:34.225Z,41.14
2022-08-17T12:39:14.582Z,39.72
2022-08-17T12:41:52.322Z,40.36
2022-08-17T12:44:22.288Z,39.53
2022-08-17T12:46:54.184Z,39.25
2022-08-17T12:49:27.196Z,41.40
2022-08-17T12:52:13.416Z,37.72
2022-08-17T12:54:53.145Z,37.54
2022-08-17T12:57:23.411Z,37.05
2022-08-17T12:59:55.118Z,37.66
2022-08-17T13:02:31.663Z,37.70
2022-08-17T13:05:01.492Z,38.76
2022-08-17T13:07:40.010Z,37.59
2022-08-17T13:10:07.380Z,36.90
2022-08-17T13:12:35.836Z,37.36
2022-08-17T13:15:03.837Z,36.80
2022-08-17T13:17:35.862Z,38.41
2022-08-17T13:20:13.361Z,37.29
2022-08-17T13:22:42.180Z,35.68
2022-08-17T13:25:16.662Z,36.80
2022-08-17T13:27:45.848Z,37.31
2022-08-17T13:30:13.332Z,37.49
2022-08-17T13:32:44.024Z,37.50
2022-08-17T13:35:40.585Z,36.96
2022-08-17T13:38:13.620Z,37.91
2022-08-17T13:40:44.866Z,37.09
2022-08-17T13:43:13.240Z,37.84
2022-08-17T13:46:07.500Z,34.95
2022-08-17T13:48:35.079Z,35.91
2022-08-17T13:51:28.749Z,36.91
2022-08-17T13:54:02.380Z,36.46
2022-08-17T13:56:49.240Z,36.56
2022-08-17T13:59:52.749Z,38.42
2022-08-17T14:02:18.862Z,36.67
2022-08-17T14:04:47.572Z,35.84
2022-08-17T14:07:30.962Z,36.14
2022-08-17T14:10:05.521Z,37.05
2022-08-17T14:12:35.060Z,36.06
2022-08-17T14:15:03.224Z,37.33
2022-08-17T14:17:34.997Z,35.43
2022-08-17T14:20:08.152Z,36.05
2022-08-17T14:22:38.592Z,35.50
2022-08-17T14:25:10.672Z,34.98
2022-08-17T14:27:51.776Z,35.60
2022-08-17T14:30:23.024Z,36.11
2022-08-17T14:32:50.599Z,36.77
2022-08-17T14:35:20.628Z,37.10
2022-08-17T14:37:48.641Z,36.13
2022-08-17T14:40:17.930Z,35.38
2022-08-17T14:42:46.022Z,34.10
2022-08-17T14:45:29.716Z,35.38
2022-08-17T14:48:02.151Z,36.17
2022-08-17T14:50:29.461Z,34.87
2022-08-17T14:52:59.172Z,35.02
2022-08-17T14:55:30.440Z,35.40
2022-08-17T14:57:57.601Z,35.17
2022-08-17T15:00:24.849Z,34.70
2022-08-17T15:02:54.930Z,34.99
2022-08-17T15:05:24.404Z,35.60
2022-08-17T15:07:51.991Z,34.83
2022-08-17T15:10:20.006Z,35.48
2022-08-17T15:12:48.796Z,35.24
2022-08-17T15:15:17.598Z,34.33
2022-08-17T15:17:45.993Z,34.38
2022-08-17T15:20:15.730Z,35.22
2022-08-17T15:22:44.034Z,34.62
2022-08-17T15:25:13.623Z,35.42
2022-08-17T15:27:40.973Z,34.90
2022-08-17T15:30:13.343Z,35.12
2022-08-17T15:32:50.709Z,35.46
2022-08-17T15:35:22.111Z,34.66
2022-08-17T15:37:57.308Z,34.88
2022-08-17T15:40:24.625Z,33.94
2022-08-17T15:42:52.029Z,34.77
2022-08-17T15:45:23.732Z,34.84
2022-08-17T15:47:51.337Z,36.08
2022-08-17T15:50:19.542Z,35.71
2022-08-17T15:52:46.897Z,37.23
2022-08-17T15:55:15.688Z,36.73
2022-08-17T15:57:43.178Z,35.73
2022-08-17T16:00:11.177Z,35.62
2022-08-17T16:03:46.345Z,35.37
2022-08-17T16:05:28.408Z,36.27
2022-08-17T16:07:59.200Z,36.78
2022-08-17T16:10:35.187Z,36.19
2022-08-17T16:13:04.035Z,36.82
2022-08-17T16:15:32.453Z,37.15
2022-08-17T16:18:00.849Z,36.84
2022-08-17T16:20:28.307Z,37.24
2022-08-17T16:22:55.923Z,37.22
2022-08-17T16:25:52.015Z,37.54
2022-08-17T16:28:14.231Z,37.74
2022-08-17T16:30:42.450Z,37.98
2022-08-17T16:33:12.033Z,37.91
2022-08-17T16:35:39.465Z,37.70
2022-08-17T16:38:07.254Z,38.70
2022-08-17T16:40:35.706Z,38.27
2022-08-17T16:43:04.182Z,38.98
2022-08-17T16:45:32.258Z,40.49
2022-08-17T16:47:59.530Z,39.98
2022-08-17T16:50:28.282Z,40.16
2022-08-17T16:53:03.236Z,39.17
2022-08-17T16:55:30.997Z,40.12
2022-08-17T16:57:58.692Z,39.67
2022-08-17T17:00:27.679Z,40.36
2022-08-17T17:02:55.534Z,41.21
2022-08-17T17:05:51.424Z,41.62
2022-08-17T17:08:29.278Z,41.89
2022-08-17T17:10:57.541Z,41.66
2022-08-17T17:13:31.899Z,42.12
2022-08-17T17:16:06.130Z,42.12
2022-08-17T17:18:41.301Z,42.95
2022-08-17T17:21:16.589Z,45.79
2022-08-17T17:23:53.736Z,47.18
2022-08-17T17:26:44.921Z,47.74
2022-08-17T17:29:26.293Z,46.28
2022-08-17T17:32:03.186Z,47.33
2022-08-17T17:34:34.136Z,48.37
2022-08-17T17:37:07.841Z,49.13
2022-08-17T17:39:40.993Z,49.42
2022-08-17T17:42:14.642Z,51.14
2022-08-17T17:44:51.397Z,52.41
2022-08-17T17:47:18.476Z,52.50
2022-08-17T17:49:47.461Z,53.65
2022-08-17T17:52:26.138Z,54.65
2022-08-17T17:55:02.885Z,54.04
2022-08-17T17:57:42.175Z,54.12
2022-08-17T18:00:14.837Z,54.39
2022-08-17T18:02:53.953Z,55.74
2022-08-17T18:05:38.208Z,56.78
2022-08-17T18:08:18.721Z,57.87
2022-08-17T18:10:51.300Z,58.58
2022-08-17T18:13:28.199Z,57.22
2022-08-17T18:15:56.973Z,57.31
2022-08-17T18:18:31.456Z,58.14
2022-08-17T18:21:01.803Z,58.14
2022-08-17T18:23:30.380Z,60.28
2022-08-17T18:25:58.125Z,61.44
2022-08-17T18:28:28.016Z,63.35
2022-08-17T18:31:11.520Z,65.85
2022-08-17T18:33:39.747Z,64.46
2022-08-17T18:36:07.658Z,62.95
2022-08-17T18:38:40.134Z,63.37
2022-08-17T18:41:21.784Z,62.63
2022-08-17T18:44:01.114Z,64.51
2022-08-17T18:46:31.465Z,65.18
2022-08-17T18:49:06.152Z,65.48
2022-08-17T18:51:40.548Z,66.06
2022-08-17T18:54:18.974Z,67.90
2022-08-17T18:56:52.088Z,66.66
2022-08-17T18:59:33.322Z,64.59
2022-08-17T19:02:23.130Z,66.67
2022-08-17T19:05:10.902Z,68.00
2022-08-17T19:07:40.139Z,68.22
2022-08-17T19:10:31.772Z,69.48
2022-08-17T19:13:04.541Z,68.80
2022-08-17T19:15:45.413Z,68.34
2022-08-17T19:18:36.838Z,70.86
2022-08-17T19:21:08.037Z,69.54
2022-08-17T19:23:40.584Z,72.03
2022-08-17T19:26:53.398Z,71.84
2022-08-17T19:29:22.569Z,73.65
2022-08-17T19:31:50.234Z,73.21
2022-08-17T19:34:33.161Z,72.98
2022-08-17T19:37:06.988Z,73.18
2022-08-17T19:39:40.067Z,74.58
2022-08-17T19:42:14.743Z,72.46
2022-08-17T19:44:55.061Z,74.54
2022-08-17T19:47:53.253Z,77.04
2022-08-17T19:50:22.719Z,77.98
2022-08-17T19:52:56.777Z,79.08
2022-08-17T19:55:30.780Z,80.31
2022-08-17T19:58:07.526Z,79.06
2022-08-17T20:00:39.988Z,78.89
2022-08-17T20:03:16.652Z,79.33
2022-08-17T20:06:11.502Z,80.86
2022-08-17T20:08:39.809Z,79.16
2022-08-17T20:11:10.894Z,79.18
2022-08-17T20:13:43.988Z,79.93
2022-08-17T20:16:12.187Z,79.91
2022-08-17T20:18:52.172Z,81.73
2022-08-17T20:21:24.729Z,83.37
2022-08-17T20:23:56.563Z,83.10
2022-08-17T20:26:27.716Z,83.55
2022-08-17T20:29:36.890Z,83.31
2022-08-17T20:32:19.317Z,84.64
2022-08-17T20:34:47.961Z,83.54
2022-08-17T20:37:31.939Z,84.97
2022-08-17T20:40:34.415Z,85.02
2022-08-17T20:43:47.591Z,86.41
2022-08-17T20:46:25.479Z,86.92
2022-08-17T20:48:57.051Z,88.88
2022-08-17T20:51:31.493Z,89.67
2022-08-17T20:54:06.899Z,89.91
2022-08-17T20:56:49.407Z,89.86
2022-08-17T20:59:57.609Z,90.88
2022-08-17T21:02:29.326Z,86.22
2022-08-17T21:05:07.237Z,86.08
2022-08-17T21:07:55.278Z,87.50
2022-08-17T21:10:36.742Z,86.00
2022-08-17T21:13:44.488Z,88.60
2022-08-17T21:16:31.189Z,90.51
2022-08-17T21:19:12.482Z,89.66
2022-08-17T21:21:49.641Z,92.82
2022-08-17T21:24:31.213Z,95.66
2022-08-17T21:27:09.286Z,94.03
2022-08-17T21:29:52.755Z,91.38
2022-08-17T21:32:29.565Z,91.60
2022-08-17T21:35:44.137Z,94.28
2022-08-17T21:38:15.190Z,96.17
2022-08-17T21:40:46.106Z,97.76
2022-08-17T21:43:22.508Z,98.44
2022-08-17T21:45:58.937Z,98.95
2022-08-17T21:48:27.351Z,98.01
2022-08-17T21:51:02.322Z,99.58
2022-08-17T21:53:40.031Z,100.00
2022-08-17T21:56:08.529Z,100.00
2022-08-17T21:58:38.540Z,100.00
2022-08-17T22:01:20.274Z,100.00
2022-08-17T22:03:55.989Z,100.00
2022-08-17T22:06:28.481Z,100.00
2022-08-17T22:09:06.127Z,100.00
2022-08-17T22:11:52.833Z,100.00
2022-08-17T22:14:20.979Z,100.00
2022-08-17T22:16:48.752Z,100.00
2022-08-17T22:19:16.008Z,100.00
2022-08-17T22:21:45.172Z,100.00
2022-08-17T22:24:19.709Z,100.00
2022-08-17T22:27:04.015Z,100.00
2022-08-17T22:29:56.922Z,100.00
2022-08-17T22:32:35.547Z,100.00
2022-08-17T22:35:31.052Z,100.00
2022-08-17T22:38:26.401Z,100.00
2022-08-17T22:40:56.358Z,100.00
2022-08-17T22:43:26.935Z,100.00
2022-08-17T22:45:58.642Z,100.00
2022-08-17T22:48:29.295Z,100.00
2022-08-17T22:51:12.617Z,100.00
2022-08-17T22:53:50.003Z,100.00
2022-08-17T22:56:25.338Z,100.00
2022-08-17T22:58:58.758Z,100.00
2022-08-17T23:01:29.308Z,100.00
2022-08-17T23:03:58.886Z,100.00
2022-08-17T23:06:26.941Z,100.00
2022-08-17T23:08:57.145Z,95.56
2022-08-17T23:11:36.923Z,96.65
2022-08-17T23:14:13.901Z,100.00
2022-08-17T23:16:41.433Z,100.00
2022-08-17T23:19:08.831Z,100.00
2022-08-17T23:21:37.275Z,100.00
2022-08-17T23:24:07.889Z,100.00
2022-08-17T23:26:36.382Z,100.00
2022-08-17T23:29:03.982Z,100.00
2022-08-17T23:31:31.326Z,100.00
2022-08-17T23:33:58.901Z,100.00
2022-08-17T23:36:26.400Z,100.00
2022-08-17T23:38:54.228Z,100.00
2022-08-17T23:41:33.638Z,100.00
2022-08-17T23:44:01.702Z,100.00
2022-08-17T23:46:29.280Z,100.00
2022-08-17T23:48:56.582Z,100.00
2022-08-17T23:51:28.292Z,100.00
2022-08-17T23:54:07.176Z,100.00
2022-08-17T23:56:37.325Z,100.00
2022-08-17T23:59:04.826Z,100.00
